Decoded Metar for KMAN ( in ) (IATA:) | Meteo·Mobile Aviation Weather
aviador You're here:

KMAN Decoded Metar

in
Report Time2018-12-11 01:55:00
UTC Time2018-12-11 02:14:07
Flight Rules vfr VFR
Wind300° at 03 kt
W.Decomp.*RWY 29: 3.0 kt HW 0.5 kt RCW
W.Rank300° ranks 5
Current wind is below 300° avg. (8.0)
Visibility9999 m
Phenomena:N/A
Clouds:Broken 038 Hf
Overcast 075 Hf
Ceiling3,800 ft
Temp00°C
Dew Point00°C (100% RH)
AAT-3.1°C
QNH1027 hPa
Raw Report
KMAN 110155Z AUTO 30003KT 8SM BKN038 OVC075 00/00 A3032 RMK
A01=

Extra information for KMAN:More info

Social comments